createdAt,value
2018-07-25T00:00:06.031Z,22.98
2018-07-25T00:02:34.572Z,22.92
2018-07-25T00:05:03.240Z,22.83
2018-07-25T00:07:31.851Z,22.83
2018-07-25T00:10:00.386Z,22.78
2018-07-25T00:12:29.030Z,22.83
2018-07-25T00:14:58.141Z,22.88
2018-07-25T00:17:26.905Z,22.93
2018-07-25T00:19:55.458Z,22.89
2018-07-25T00:22:23.941Z,22.83
2018-07-25T00:24:52.546Z,22.82
2018-07-25T00:27:21.162Z,22.75
2018-07-25T00:29:49.981Z,22.65
2018-07-25T00:32:18.509Z,22.52
2018-07-25T00:34:47.026Z,22.45
2018-07-25T00:37:15.554Z,22.38
2018-07-25T00:39:44.075Z,22.31
2018-07-25T00:42:12.731Z,22.21
2018-07-25T00:44:41.370Z,22.10
2018-07-25T00:47:09.854Z,22.04
2018-07-25T00:49:38.313Z,21.97
2018-07-25T00:52:06.942Z,21.89
2018-07-25T00:54:35.406Z,21.87
2018-07-25T00:57:03.952Z,21.86
2018-07-25T00:59:32.518Z,21.80
2018-07-25T01:02:01.066Z,21.76
2018-07-25T01:04:29.526Z,21.70
2018-07-25T01:06:58.055Z,21.68
2018-07-25T01:09:26.646Z,21.64
2018-07-25T01:11:55.215Z,21.59
2018-07-25T01:14:23.710Z,21.55
2018-07-25T01:16:52.472Z,21.56
2018-07-25T01:19:21.034Z,21.53
2018-07-25T01:21:49.633Z,21.56
2018-07-25T01:24:18.655Z,21.53
2018-07-25T01:26:47.287Z,21.49
2018-07-25T01:29:15.940Z,21.47
2018-07-25T01:31:45.521Z,21.40
2018-07-25T01:34:14.072Z,21.36
2018-07-25T01:36:42.792Z,21.26
2018-07-25T01:39:11.777Z,21.20
2018-07-25T01:41:40.637Z,21.14
2018-07-25T01:44:09.839Z,21.10
2018-07-25T01:46:38.375Z,21.08
2018-07-25T01:49:06.946Z,21.06
2018-07-25T01:51:35.419Z,21.03
2018-07-25T01:54:03.889Z,21.10
2018-07-25T02:02:42.657Z,21.08
2018-07-25T02:05:11.116Z,21.01
2018-07-25T02:07:39.703Z,20.94
2018-07-25T02:10:08.222Z,20.90
2018-07-25T02:12:36.706Z,20.86
2018-07-25T02:15:06.451Z,20.85
2018-07-25T02:17:34.987Z,20.91
2018-07-25T02:20:03.545Z,20.98
2018-07-25T02:22:32.022Z,20.94
2018-07-25T02:25:00.675Z,20.91
2018-07-25T02:27:29.422Z,20.83
2018-07-25T02:30:00.204Z,20.73
2018-07-25T02:32:28.714Z,20.69
2018-07-25T02:34:57.268Z,20.59
2018-07-25T02:37:25.776Z,20.52
2018-07-25T02:39:54.452Z,20.47
2018-07-25T02:42:23.461Z,20.48
2018-07-25T02:44:51.911Z,20.48
2018-07-25T02:47:20.570Z,20.45
2018-07-25T02:49:49.102Z,20.39
2018-07-25T02:52:17.646Z,20.36
2018-07-25T02:54:46.223Z,20.34
2018-07-25T02:57:14.816Z,20.31
2018-07-25T02:59:43.354Z,20.30
2018-07-25T03:02:12.159Z,20.27
2018-07-25T03:04:40.721Z,20.25
2018-07-25T03:07:09.291Z,20.27
2018-07-25T03:09:37.844Z,20.30
2018-07-25T03:12:06.334Z,20.30
2018-07-25T03:14:34.851Z,20.27
2018-07-25T03:17:03.416Z,20.22
2018-07-25T03:19:32.094Z,20.23
2018-07-25T03:22:00.594Z,20.17
2018-07-25T03:24:29.098Z,20.13
2018-07-25T03:26:57.618Z,20.10
2018-07-25T03:29:26.230Z,20.06
2018-07-25T03:31:54.828Z,20.07
2018-07-25T03:34:23.285Z,20.10
2018-07-25T03:36:51.865Z,20.06
2018-07-25T03:39:20.354Z,20.06
2018-07-25T03:41:48.843Z,20.11
2018-07-25T03:44:17.308Z,20.16
2018-07-25T03:46:45.866Z,20.12
2018-07-25T03:49:14.591Z,20.22
2018-07-25T03:51:43.114Z,20.31
2018-07-25T03:54:11.832Z,20.28
2018-07-25T03:56:40.390Z,20.27
2018-07-25T03:59:08.928Z,20.24
2018-07-25T04:01:37.524Z,20.23
2018-07-25T04:04:06.176Z,20.23
2018-07-25T04:06:34.699Z,20.22
2018-07-25T04:09:03.783Z,20.20
2018-07-25T04:11:32.328Z,20.14
2018-07-25T04:14:00.874Z,20.06
2018-07-25T04:16:29.413Z,20.04
2018-07-25T04:18:58.024Z,20.02
2018-07-25T04:21:26.710Z,19.98
2018-07-25T04:23:55.310Z,19.98
2018-07-25T04:26:23.942Z,20.00
2018-07-25T04:28:52.633Z,20.00
2018-07-25T04:31:21.593Z,19.98
2018-07-25T04:33:50.206Z,20.00
2018-07-25T04:36:18.726Z,20.01
2018-07-25T04:38:47.175Z,20.09
2018-07-25T04:41:15.777Z,20.11
2018-07-25T04:43:44.257Z,20.14
2018-07-25T04:46:12.828Z,20.17
2018-07-25T04:48:41.539Z,20.20
2018-07-25T04:51:10.336Z,20.31
2018-07-25T04:53:38.901Z,20.43
2018-07-25T04:56:07.414Z,20.55
2018-07-25T04:58:36.006Z,20.65
2018-07-25T05:01:06.794Z,20.75
2018-07-25T05:03:35.285Z,20.91
2018-07-25T05:06:03.863Z,21.08
2018-07-25T05:08:32.470Z,21.20
2018-07-25T05:11:00.977Z,21.30
2018-07-25T05:13:29.546Z,21.43
2018-07-25T05:15:58.155Z,21.46
2018-07-25T05:18:26.703Z,21.48
2018-07-25T05:20:55.190Z,21.54
2018-07-25T05:23:24.381Z,21.63
2018-07-25T05:25:53.716Z,21.64
2018-07-25T05:28:22.279Z,21.79
2018-07-25T05:30:51.095Z,21.89
2018-07-25T05:33:19.782Z,22.00
2018-07-25T05:35:48.400Z,22.10
2018-07-25T05:38:16.950Z,22.21
2018-07-25T05:40:45.654Z,22.42
2018-07-25T05:43:14.170Z,22.69
2018-07-25T05:45:42.767Z,23.00
2018-07-25T05:48:11.275Z,23.25
2018-07-25T05:50:40.176Z,23.45
2018-07-25T05:53:08.870Z,23.74
2018-07-25T05:55:37.475Z,23.96
2018-07-25T05:58:06.027Z,24.17
2018-07-25T06:00:34.678Z,24.28
2018-07-25T06:03:03.499Z,24.47
2018-07-25T06:05:31.967Z,24.71
2018-07-25T06:08:00.650Z,24.80
2018-07-25T06:10:29.230Z,25.02
2018-07-25T06:12:58.471Z,25.36
2018-07-25T06:15:27.652Z,25.58
2018-07-25T06:17:56.457Z,25.69
2018-07-25T06:20:25.067Z,25.86
2018-07-25T06:22:53.711Z,26.19
2018-07-25T06:25:22.300Z,26.42
2018-07-25T06:27:50.853Z,26.67
2018-07-25T06:30:19.395Z,26.83
2018-07-25T06:32:48.126Z,26.99
2018-07-25T06:35:16.690Z,27.09
2018-07-25T06:37:45.557Z,27.04
2018-07-25T06:40:14.197Z,27.30
2018-07-25T06:42:42.837Z,27.32
2018-07-25T06:45:11.469Z,27.27
2018-07-25T06:47:40.065Z,27.27
2018-07-25T06:50:09.254Z,27.50
2018-07-25T06:52:37.839Z,27.56
2018-07-25T06:55:06.662Z,27.77
2018-07-25T06:57:35.397Z,28.05
2018-07-25T07:00:04.115Z,28.14
2018-07-25T07:02:32.666Z,28.34
2018-07-25T07:05:01.270Z,28.27
2018-07-25T07:07:29.823Z,28.58
2018-07-25T07:09:58.394Z,28.63
2018-07-25T07:12:27.126Z,28.89
2018-07-25T07:14:55.633Z,29.02
2018-07-25T07:17:24.250Z,29.16
2018-07-25T07:19:52.826Z,29.13
2018-07-25T07:22:21.582Z,29.18
2018-07-25T07:24:50.178Z,29.14
2018-07-25T07:27:18.742Z,28.92
2018-07-25T07:29:47.350Z,28.90
2018-07-25T07:32:15.874Z,28.75
2018-07-25T07:34:44.375Z,28.65
2018-07-25T07:37:13.047Z,28.49
2018-07-25T07:39:41.549Z,28.29
2018-07-25T07:42:10.253Z,28.09
2018-07-25T07:44:38.911Z,27.84
2018-07-25T07:47:07.468Z,27.91
2018-07-25T07:49:36.010Z,27.93
2018-07-25T07:52:04.552Z,28.02
2018-07-25T07:54:33.126Z,28.07
2018-07-25T07:57:05.840Z,28.06
2018-07-25T07:59:34.387Z,28.21
2018-07-25T08:02:03.322Z,28.32
2018-07-25T08:04:31.865Z,28.43
2018-07-25T08:07:00.330Z,28.56
2018-07-25T08:09:28.818Z,28.55
2018-07-25T08:11:57.454Z,28.47
2018-07-25T08:14:26.045Z,28.69
2018-07-25T08:16:54.550Z,28.62
2018-07-25T08:19:23.092Z,28.85
2018-07-25T08:21:51.749Z,28.90
2018-07-25T08:24:20.234Z,28.80
2018-07-25T08:26:48.715Z,28.94
2018-07-25T08:29:17.238Z,28.99
2018-07-25T08:31:45.786Z,29.26
2018-07-25T08:34:14.390Z,29.40
2018-07-25T08:36:42.938Z,29.55
2018-07-25T08:39:11.999Z,29.64
2018-07-25T08:41:40.601Z,29.73
2018-07-25T08:44:09.159Z,29.87
2018-07-25T08:46:37.911Z,29.92
2018-07-25T08:49:06.702Z,30.05
2018-07-25T08:51:35.357Z,30.14
2018-07-25T08:54:03.846Z,30.08
2018-07-25T08:56:32.379Z,30.22
2018-07-25T08:59:01.028Z,30.40
2018-07-25T09:01:29.729Z,30.37
2018-07-25T09:03:59.385Z,30.54
2018-07-25T09:06:27.934Z,30.70
2018-07-25T09:08:56.378Z,30.89
2018-07-25T09:11:28.089Z,31.07
2018-07-25T09:13:57.705Z,31.19
2018-07-25T09:16:27.243Z,31.34
2018-07-25T09:18:56.174Z,31.53
2018-07-25T09:21:24.754Z,31.90
2018-07-25T09:23:53.768Z,31.96
2018-07-25T09:26:22.342Z,32.10
2018-07-25T09:28:50.970Z,32.19
2018-07-25T09:31:19.467Z,32.39
2018-07-25T09:33:48.102Z,32.63
2018-07-25T09:36:16.690Z,32.76
2018-07-25T09:38:45.194Z,33.05
2018-07-25T09:41:13.794Z,32.96
2018-07-25T09:43:42.246Z,33.13
2018-07-25T09:46:10.982Z,33.20
2018-07-25T09:48:39.490Z,33.57
2018-07-25T09:51:09.123Z,33.88
2018-07-25T09:53:37.632Z,34.51
2018-07-25T09:56:06.162Z,34.97
2018-07-25T09:58:34.686Z,35.38
2018-07-25T10:01:03.469Z,35.91
2018-07-25T10:03:31.908Z,35.65
2018-07-25T10:06:00.499Z,35.81
2018-07-25T10:08:29.084Z,36.49
2018-07-25T10:11:02.270Z,36.76
2018-07-25T10:13:30.832Z,36.68
2018-07-25T10:15:59.635Z,36.88
2018-07-25T10:18:28.298Z,37.39
2018-07-25T10:20:57.053Z,37.38
2018-07-25T10:23:25.563Z,37.87
2018-07-25T10:25:54.806Z,38.24
2018-07-25T10:28:23.365Z,38.58
2018-07-25T10:30:51.906Z,38.07
2018-07-25T10:33:20.422Z,38.74
2018-07-25T10:35:49.201Z,38.63
2018-07-25T10:38:17.681Z,38.70
2018-07-25T10:40:46.254Z,39.07
2018-07-25T10:43:14.758Z,39.37
2018-07-25T10:45:43.349Z,39.68
2018-07-25T10:48:11.885Z,39.50
2018-07-25T10:50:40.428Z,39.56
2018-07-25T10:53:09.091Z,40.14
2018-07-25T10:55:37.713Z,39.64
2018-07-25T10:58:06.292Z,40.47
2018-07-25T11:00:34.948Z,41.08
2018-07-25T11:03:03.578Z,41.39
2018-07-25T11:05:32.199Z,41.06
2018-07-25T11:08:00.654Z,40.98
2018-07-25T11:10:29.294Z,41.85
2018-07-25T11:12:57.868Z,40.46
2018-07-25T11:15:26.426Z,39.55
2018-07-25T11:17:55.106Z,38.99
2018-07-25T11:20:23.894Z,38.03
2018-07-25T11:22:52.687Z,39.03
2018-07-25T11:25:21.326Z,38.72
2018-07-25T11:27:50.204Z,39.74
2018-07-25T11:30:18.872Z,40.98
2018-07-25T11:32:47.372Z,41.28
2018-07-25T11:35:16.014Z,41.47
2018-07-25T11:37:44.693Z,42.61
2018-07-25T11:40:13.357Z,43.11
2018-07-25T11:42:41.862Z,43.18
2018-07-25T11:45:10.430Z,43.67
2018-07-25T11:47:39.263Z,42.07
2018-07-25T11:50:08.015Z,42.68
2018-07-25T11:52:36.622Z,42.06
2018-07-25T11:55:05.852Z,41.47
2018-07-25T11:57:34.370Z,40.66
2018-07-25T12:00:02.955Z,41.56
2018-07-25T12:02:31.565Z,42.47
2018-07-25T12:05:00.068Z,42.29
2018-07-25T12:07:28.750Z,43.42
2018-07-25T12:09:57.710Z,45.19
2018-07-25T12:12:26.362Z,44.55
2018-07-25T12:14:55.098Z,45.22
2018-07-25T12:17:24.034Z,45.63
2018-07-25T12:19:52.610Z,46.80
2018-07-25T12:22:21.132Z,46.73
2018-07-25T12:24:49.777Z,46.58
2018-07-25T12:27:18.361Z,45.22
2018-07-25T12:29:46.966Z,44.70
2018-07-25T12:32:15.481Z,45.89
2018-07-25T12:34:44.038Z,47.27
2018-07-25T12:37:12.514Z,47.37
2018-07-25T12:39:40.998Z,47.64
2018-07-25T12:42:09.519Z,46.75
2018-07-25T12:44:38.128Z,48.24
2018-07-25T12:47:06.730Z,48.28
2018-07-25T12:49:35.406Z,46.96
2018-07-25T12:52:04.050Z,46.86
2018-07-25T12:54:32.871Z,48.20
2018-07-25T12:57:01.595Z,48.74
2018-07-25T12:59:30.467Z,48.93
2018-07-25T13:01:58.973Z,49.07
2018-07-25T13:04:27.615Z,49.12
2018-07-25T13:06:56.110Z,48.41
2018-07-25T13:09:24.654Z,47.80
2018-07-25T13:11:53.255Z,47.06
2018-07-25T13:14:21.851Z,47.66
2018-07-25T13:16:50.425Z,48.28
2018-07-25T13:19:19.103Z,48.49
2018-07-25T13:21:47.722Z,49.93
2018-07-25T13:24:16.334Z,49.53
2018-07-25T13:26:45.167Z,49.33
2018-07-25T13:29:13.678Z,50.02
2018-07-25T13:31:42.735Z,48.99
2018-07-25T13:34:11.266Z,49.23
2018-07-25T13:36:39.889Z,50.14
2018-07-25T13:39:09.218Z,48.23
2018-07-25T13:41:37.693Z,47.90
2018-07-25T13:44:06.503Z,48.18
2018-07-25T13:46:35.102Z,44.37
2018-07-25T13:49:03.783Z,44.07
2018-07-25T13:51:32.371Z,46.58
2018-07-25T13:54:00.969Z,47.75
2018-07-25T13:56:33.538Z,48.86
2018-07-25T13:59:02.490Z,49.41
2018-07-25T14:01:31.053Z,48.32
2018-07-25T14:03:59.596Z,50.27
2018-07-25T14:06:28.334Z,49.75
2018-07-25T14:08:56.937Z,49.74
2018-07-25T14:11:25.505Z,50.58
2018-07-25T14:13:54.125Z,50.32
2018-07-25T14:16:22.586Z,50.78
2018-07-25T14:18:51.369Z,51.10
2018-07-25T14:21:23.083Z,51.88
2018-07-25T14:23:51.848Z,51.87
2018-07-25T14:26:20.258Z,52.64
2018-07-25T14:28:48.852Z,51.27
2018-07-25T14:31:17.498Z,50.59
2018-07-25T14:33:46.037Z,49.99
2018-07-25T14:36:14.696Z,50.05
2018-07-25T14:38:43.310Z,50.07
2018-07-25T14:41:11.883Z,50.35
2018-07-25T14:43:40.408Z,49.99
2018-07-25T14:46:09.086Z,49.70
2018-07-25T14:48:37.577Z,50.23
2018-07-25T14:51:06.245Z,50.66
2018-07-25T14:53:34.731Z,50.10
2018-07-25T14:56:03.240Z,50.53
2018-07-25T14:58:31.782Z,50.90
2018-07-25T15:01:00.430Z,49.42
2018-07-25T15:03:28.963Z,50.28
2018-07-25T15:05:57.494Z,50.21
2018-07-25T15:08:26.122Z,49.52
2018-07-25T15:10:54.747Z,48.01
2018-07-25T15:13:23.427Z,45.49
2018-07-25T15:15:52.103Z,46.73
2018-07-25T15:18:20.774Z,46.96
2018-07-25T15:20:49.504Z,46.85
2018-07-25T15:23:29.213Z,47.60
2018-07-25T15:25:57.715Z,45.82
2018-07-25T15:28:26.295Z,45.53
2018-07-25T15:30:55.066Z,43.85
2018-07-25T15:33:23.563Z,44.55
2018-07-25T15:35:52.315Z,45.53
2018-07-25T15:38:20.826Z,46.10
2018-07-25T15:40:49.394Z,45.85
2018-07-25T15:43:17.878Z,44.08
2018-07-25T15:45:46.389Z,45.26
2018-07-25T15:48:15.097Z,45.33
2018-07-25T15:50:43.694Z,46.67
2018-07-25T15:53:12.244Z,47.02
2018-07-25T15:55:40.835Z,47.40
2018-07-25T15:58:09.430Z,47.63
2018-07-25T16:00:38.343Z,47.00
2018-07-25T16:03:06.502Z,46.56
2018-07-25T16:05:35.207Z,45.93
2018-07-25T16:08:03.794Z,47.37
2018-07-25T16:10:32.359Z,47.89
2018-07-25T16:13:01.027Z,47.38
2018-07-25T16:15:29.698Z,46.29
2018-07-25T16:17:58.319Z,46.40
2018-07-25T16:20:26.862Z,46.65
2018-07-25T16:22:55.518Z,47.15
2018-07-25T16:25:24.325Z,47.19
2018-07-25T16:27:52.985Z,47.34
2018-07-25T16:30:21.534Z,46.64
2018-07-25T16:32:50.109Z,47.16
2018-07-25T16:35:18.651Z,46.40
2018-07-25T16:37:47.180Z,46.45
2018-07-25T16:40:15.751Z,47.28
2018-07-25T16:42:44.363Z,46.87
2018-07-25T16:45:12.895Z,44.19
2018-07-25T16:47:41.501Z,45.98
2018-07-25T16:50:10.314Z,46.83
2018-07-25T16:52:38.918Z,44.42
2018-07-25T16:55:07.632Z,44.98
2018-07-25T16:57:36.145Z,44.72
2018-07-25T17:00:09.735Z,45.37
2018-07-25T17:02:38.352Z,43.77
2018-07-25T17:05:07.306Z,44.09
2018-07-25T17:07:35.819Z,43.83
2018-07-25T17:10:05.154Z,44.76
2018-07-25T17:12:33.795Z,45.86
2018-07-25T17:15:02.546Z,46.04
2018-07-25T17:17:31.149Z,44.85
2018-07-25T17:19:59.630Z,43.96
2018-07-25T17:22:28.263Z,43.12
2018-07-25T17:24:56.793Z,44.20
2018-07-25T17:27:25.384Z,44.92
2018-07-25T17:29:53.887Z,45.09
2018-07-25T17:32:22.461Z,45.07
2018-07-25T17:34:51.046Z,44.92
2018-07-25T17:37:19.857Z,45.07
2018-07-25T17:39:48.408Z,44.45
2018-07-25T17:42:17.006Z,43.86
2018-07-25T17:44:45.597Z,44.24
2018-07-25T17:47:14.210Z,44.30
2018-07-25T17:49:42.746Z,43.10
2018-07-25T17:52:12.274Z,42.91
2018-07-25T17:54:40.986Z,42.58
2018-07-25T17:57:09.706Z,40.95
2018-07-25T17:59:38.256Z,40.55
2018-07-25T18:02:06.958Z,39.02
2018-07-25T18:04:35.480Z,36.65
2018-07-25T18:07:05.092Z,35.45
2018-07-25T18:09:34.422Z,34.54
2018-07-25T18:12:03.094Z,33.58
2018-07-25T18:14:31.673Z,33.29
2018-07-25T18:17:02.527Z,32.93
2018-07-25T18:19:31.121Z,32.65
2018-07-25T18:21:59.665Z,32.36
2018-07-25T18:24:28.146Z,32.18
2018-07-25T18:26:56.926Z,31.99
2018-07-25T18:29:25.439Z,31.83
2018-07-25T18:31:54.235Z,31.67
2018-07-25T18:34:22.845Z,31.53
2018-07-25T18:36:51.669Z,31.43
2018-07-25T18:39:20.210Z,31.30
2018-07-25T18:41:48.763Z,31.10
2018-07-25T18:44:17.586Z,30.99
2018-07-25T18:46:46.485Z,30.85
2018-07-25T18:49:15.493Z,30.74
2018-07-25T18:51:44.118Z,30.57
2018-07-25T18:54:12.766Z,30.43
2018-07-25T18:56:41.729Z,30.29
2018-07-25T18:59:10.575Z,30.14
2018-07-25T19:01:39.382Z,29.95
2018-07-25T19:04:08.020Z,29.85
2018-07-25T19:06:36.544Z,29.60
2018-07-25T19:09:08.379Z,29.38
2018-07-25T19:11:36.890Z,29.18
2018-07-25T19:14:10.574Z,29.05
2018-07-25T19:16:39.055Z,29.02
2018-07-25T19:19:07.554Z,28.94
2018-07-25T19:21:36.042Z,28.89
2018-07-25T19:24:04.490Z,28.82
2018-07-25T19:26:32.970Z,28.73
2018-07-25T19:29:01.461Z,28.59
2018-07-25T19:31:30.091Z,28.52
2018-07-25T19:33:59.120Z,28.54
2018-07-25T19:36:27.618Z,28.42
2018-07-25T19:38:56.122Z,28.27
2018-07-25T19:41:24.571Z,28.25
2018-07-25T19:43:53.100Z,28.04
2018-07-25T19:46:21.726Z,27.95
2018-07-25T19:48:50.287Z,28.00
2018-07-25T19:51:18.979Z,27.89
2018-07-25T19:53:47.523Z,27.77
2018-07-25T19:56:16.095Z,27.78
2018-07-25T19:58:44.542Z,27.86
2018-07-25T20:01:13.099Z,27.86
2018-07-25T20:03:41.661Z,27.85
2018-07-25T20:06:10.167Z,27.72
2018-07-25T20:08:38.763Z,27.55
2018-07-25T20:11:07.933Z,27.43
2018-07-25T20:13:40.662Z,27.31
2018-07-25T20:16:09.133Z,27.24
2018-07-25T20:18:37.740Z,27.08
2018-07-25T20:21:06.708Z,27.00
2018-07-25T20:23:35.395Z,27.00
2018-07-25T20:26:03.955Z,26.97
2018-07-25T20:28:32.522Z,26.88
2018-07-25T20:31:00.977Z,26.88
2018-07-25T20:33:29.500Z,26.79
2018-07-25T20:35:58.150Z,26.76
2018-07-25T20:38:26.789Z,26.74
2018-07-25T20:40:55.571Z,26.67
2018-07-25T20:43:24.091Z,26.69
2018-07-25T20:45:52.657Z,26.68
2018-07-25T20:48:21.196Z,26.60
2018-07-25T20:50:49.853Z,26.53
2018-07-25T20:53:18.314Z,26.45
2018-07-25T20:55:46.955Z,26.43
2018-07-25T20:58:15.502Z,26.39
2018-07-25T21:00:44.036Z,26.24
2018-07-25T21:03:12.594Z,26.09
2018-07-25T21:05:41.232Z,26.00
2018-07-25T21:08:10.090Z,25.95
2018-07-25T21:10:38.977Z,25.86
2018-07-25T21:13:07.477Z,25.83
2018-07-25T21:15:36.523Z,25.73
2018-07-25T21:18:05.346Z,25.64
2018-07-25T21:20:33.886Z,25.61
2018-07-25T21:23:02.355Z,25.53
2018-07-25T21:25:30.920Z,25.45
2018-07-25T21:27:59.418Z,25.37
2018-07-25T21:30:27.897Z,25.29
2018-07-25T21:32:56.377Z,25.24
2018-07-25T21:35:24.980Z,25.28
2018-07-25T21:37:53.954Z,25.29
2018-07-25T21:40:22.466Z,25.14
2018-07-25T21:42:50.931Z,25.08
2018-07-25T21:45:19.406Z,25.04
2018-07-25T21:47:49.282Z,25.06
2018-07-25T21:50:17.813Z,24.95
2018-07-25T21:52:47.327Z,24.90
2018-07-25T21:55:15.983Z,24.91
2018-07-25T21:57:44.582Z,24.80
2018-07-25T22:00:15.841Z,24.76
2018-07-25T22:02:45.969Z,24.76
2018-07-25T22:05:14.943Z,24.75
2018-07-25T22:07:45.585Z,24.84
2018-07-25T22:10:14.467Z,24.72
2018-07-25T22:12:42.987Z,24.58
2018-07-25T22:15:12.189Z,24.42
2018-07-25T22:17:41.014Z,24.29
2018-07-25T22:20:11.648Z,24.28
2018-07-25T22:22:40.801Z,24.20
2018-07-25T22:25:10.078Z,24.12
2018-07-25T22:27:39.330Z,24.06
2018-07-25T22:30:08.296Z,23.97
2018-07-25T22:32:36.866Z,23.91
2018-07-25T22:35:05.436Z,23.84
2018-07-25T22:37:34.143Z,23.80
2018-07-25T22:40:02.659Z,23.75
2018-07-25T22:42:31.201Z,23.70
2018-07-25T22:44:59.963Z,23.64
2018-07-25T22:47:28.731Z,23.64
2018-07-25T22:49:57.596Z,23.66
2018-07-25T22:52:26.139Z,23.67
2018-07-25T22:54:54.831Z,23.53
2018-07-25T22:57:23.443Z,23.39
2018-07-25T22:59:52.095Z,23.26
2018-07-25T23:02:20.649Z,23.15
2018-07-25T23:04:49.535Z,23.04
2018-07-25T23:07:18.138Z,23.02
2018-07-25T23:09:46.878Z,22.97
2018-07-25T23:12:15.420Z,22.93
2018-07-25T23:14:44.143Z,22.91
2018-07-25T23:17:12.668Z,22.92
2018-07-25T23:19:41.206Z,22.90
2018-07-25T23:22:09.790Z,22.94
2018-07-25T23:24:38.617Z,22.95
2018-07-25T23:27:07.142Z,22.91
2018-07-25T23:29:35.901Z,22.86
2018-07-25T23:32:04.486Z,22.79
2018-07-25T23:34:32.960Z,22.76
2018-07-25T23:37:01.412Z,22.69
2018-07-25T23:39:30.106Z,22.58
2018-07-25T23:41:58.708Z,22.53
2018-07-25T23:44:28.369Z,22.46
2018-07-25T23:46:56.957Z,22.36
2018-07-25T23:49:25.578Z,22.31
2018-07-25T23:51:54.124Z,22.29
2018-07-25T23:54:22.680Z,22.23
2018-07-25T23:56:51.377Z,22.17
2018-07-25T23:59:20.046Z,22.14
